createdAt,value
2018-07-28T00:00:58.192Z,96.22
2018-07-28T00:01:59.596Z,96.46
2018-07-28T00:03:00.987Z,96.03
2018-07-28T00:04:02.374Z,96.03
2018-07-28T00:05:03.776Z,96.36
2018-07-28T00:06:05.192Z,96.31
2018-07-28T00:07:06.575Z,95.83
2018-07-28T00:08:07.971Z,96.41
2018-07-28T00:09:09.368Z,95.68
2018-07-28T00:10:10.758Z,96.31
2018-07-28T00:11:12.158Z,96.17
2018-07-28T00:12:13.562Z,96.03
2018-07-28T00:13:14.960Z,95.98
2018-07-28T00:14:16.339Z,95.93
2018-07-28T00:15:17.744Z,96.03
2018-07-28T00:16:19.119Z,96.03
2018-07-28T00:17:20.516Z,96.26
2018-07-28T00:18:21.934Z,96.03
2018-07-28T00:19:23.316Z,95.93
2018-07-28T00:20:24.704Z,96.41
2018-07-28T00:21:26.133Z,96.22
2018-07-28T00:22:28.409Z,96.12
2018-07-28T00:23:29.793Z,96.51
2018-07-28T00:24:31.195Z,96.70
2018-07-28T00:25:32.576Z,96.51
2018-07-28T00:26:33.962Z,96.89
2018-07-28T00:27:35.355Z,96.22
2018-07-28T00:28:36.734Z,96.61
2018-07-28T00:29:38.125Z,96.89
2018-07-28T00:30:39.523Z,96.31
2018-07-28T00:31:41.566Z,96.80
2018-07-28T00:32:42.973Z,96.51
2018-07-28T00:33:44.351Z,96.61
2018-07-28T00:34:45.737Z,96.51
2018-07-28T00:35:47.118Z,96.89
2018-07-28T00:36:48.513Z,96.31
2018-07-28T00:37:49.896Z,96.70
2018-07-28T00:38:51.295Z,96.61
2018-07-28T00:39:52.681Z,96.03
2018-07-28T00:40:54.079Z,96.41
2018-07-28T00:41:55.464Z,96.46
2018-07-28T00:42:56.851Z,96.61
2018-07-28T00:43:58.239Z,97.04
2018-07-28T00:44:59.629Z,96.36
2018-07-28T00:46:01.017Z,96.41
2018-07-28T00:47:02.411Z,96.46
2018-07-28T00:48:03.799Z,96.51
2018-07-28T00:49:05.197Z,96.84
2018-07-28T00:50:06.607Z,96.61
2018-07-28T00:51:07.982Z,96.51
2018-07-28T00:52:09.371Z,96.41
2018-07-28T00:53:10.768Z,96.41
2018-07-28T00:54:12.166Z,96.61
2018-07-28T00:55:13.531Z,96.80
2018-07-28T00:56:14.932Z,96.70
2018-07-28T00:57:16.318Z,97.04
2018-07-28T00:58:17.718Z,97.14
2018-07-28T00:59:19.125Z,96.56
2018-07-28T01:00:20.521Z,97.14
2018-07-28T01:01:21.908Z,96.84
2018-07-28T01:02:23.299Z,96.89
2018-07-28T01:03:24.690Z,96.70
2018-07-28T01:04:26.077Z,97.04
2018-07-28T01:05:27.489Z,96.66
2018-07-28T01:06:28.874Z,97.04
2018-07-28T01:07:30.272Z,97.14
2018-07-28T01:08:31.658Z,96.84
2018-07-28T01:09:33.056Z,96.84
2018-07-28T01:10:34.462Z,96.66
2018-07-28T01:11:35.853Z,97.14
2018-07-28T01:12:37.228Z,96.84
2018-07-28T01:13:38.625Z,97.04
2018-07-28T01:14:40.019Z,97.14
2018-07-28T01:15:41.409Z,97.62
2018-07-28T01:16:42.801Z,97.42
2018-07-28T01:17:44.184Z,97.52
2018-07-28T01:18:45.571Z,97.81
2018-07-28T01:19:46.960Z,97.42
2018-07-28T01:20:48.354Z,97.91
2018-07-28T01:21:49.739Z,97.52
2018-07-28T01:22:51.133Z,97.42
2018-07-28T01:23:52.528Z,97.52
2018-07-28T01:24:53.927Z,97.72
2018-07-28T01:25:55.326Z,97.42
2018-07-28T01:26:56.718Z,97.52
2018-07-28T01:27:58.104Z,97.52
2018-07-28T01:28:59.496Z,98.39
2018-07-28T01:30:00.901Z,98.29
2018-07-28T01:31:02.298Z,98.39
2018-07-28T01:32:03.674Z,98.20
2018-07-28T01:33:05.075Z,97.91
2018-07-28T01:34:06.463Z,98.00
2018-07-28T01:35:07.848Z,98.10
2018-07-28T01:36:09.242Z,98.20
2018-07-28T01:37:10.628Z,98.15
2018-07-28T01:38:12.019Z,98.20
2018-07-28T01:39:13.440Z,98.25
2018-07-28T01:40:14.831Z,98.25
2018-07-28T01:41:16.233Z,97.96
2018-07-28T01:42:17.623Z,98.05
2018-07-28T01:43:19.013Z,98.39
2018-07-28T01:44:20.401Z,98.25
2018-07-28T01:45:21.795Z,98.54
2018-07-28T01:46:23.182Z,98.25
2018-07-28T01:47:24.579Z,98.34
2018-07-28T01:48:25.965Z,97.86
2018-07-28T01:49:27.381Z,97.96
2018-07-28T01:50:28.738Z,98.20
2018-07-28T01:51:30.136Z,98.15
2018-07-28T01:52:31.530Z,97.77
2018-07-28T01:53:32.924Z,98.34
2018-07-28T01:54:34.315Z,98.05
2018-07-28T01:55:35.713Z,98.34
2018-07-28T01:56:37.087Z,98.25
2018-07-28T01:57:38.487Z,98.34
2018-07-28T01:58:39.871Z,98.25
2018-07-28T01:59:41.279Z,98.44
2018-07-28T02:00:42.660Z,98.54
2018-07-28T02:01:44.053Z,98.63
2018-07-28T02:02:45.453Z,98.73
2018-07-28T02:03:46.851Z,98.73
2018-07-28T02:04:48.237Z,98.44
2018-07-28T02:05:49.631Z,98.54
2018-07-28T02:06:51.006Z,98.54
2018-07-28T02:07:52.389Z,98.63
2018-07-28T02:08:53.791Z,98.54
2018-07-28T02:09:55.170Z,98.54
2018-07-28T02:10:56.564Z,98.63
2018-07-28T02:11:57.968Z,98.63
2018-07-28T02:12:59.352Z,98.77
2018-07-28T02:14:00.740Z,98.63
2018-07-28T02:15:02.126Z,98.73
2018-07-28T02:16:03.515Z,98.73
2018-07-28T02:17:04.913Z,99.26
2018-07-28T02:18:06.297Z,98.54
2018-07-28T02:19:07.688Z,98.54
2018-07-28T02:20:09.082Z,98.54
2018-07-28T02:21:10.470Z,98.73
2018-07-28T02:22:11.850Z,98.68
2018-07-28T02:23:13.256Z,98.58
2018-07-28T02:24:14.638Z,98.73
2018-07-28T02:25:16.044Z,98.82
2018-07-28T02:26:17.446Z,98.73
2018-07-28T02:27:18.828Z,98.49
2018-07-28T02:28:20.226Z,98.68
2018-07-28T02:29:21.616Z,98.39
2018-07-28T02:30:23.009Z,98.77
2018-07-28T02:31:24.409Z,98.58
2018-07-28T02:32:25.807Z,98.39
2018-07-28T02:33:27.187Z,99.07
2018-07-28T02:34:28.592Z,98.39
2018-07-28T02:35:29.976Z,99.26
2018-07-28T02:36:31.367Z,98.58
2018-07-28T02:37:32.764Z,98.39
2018-07-28T02:38:34.164Z,98.58
2018-07-28T02:39:35.543Z,98.77
2018-07-28T02:40:36.966Z,98.58
2018-07-28T02:41:38.370Z,98.58
2018-07-28T02:42:39.745Z,98.49
2018-07-28T02:43:41.135Z,98.58
2018-07-28T02:44:42.526Z,98.68
2018-07-28T02:45:43.925Z,98.77
2018-07-28T02:46:45.316Z,98.39
2018-07-28T02:47:46.707Z,98.58
2018-07-28T02:48:48.105Z,98.68
2018-07-28T02:49:49.494Z,98.49
2018-07-28T02:50:50.906Z,98.68
2018-07-28T02:51:52.288Z,98.58
2018-07-28T02:52:53.674Z,98.68
2018-07-28T02:53:55.059Z,98.49
2018-07-28T02:54:56.453Z,98.68
2018-07-28T02:55:57.853Z,98.77
2018-07-28T02:56:59.229Z,98.39
2018-07-28T02:58:00.631Z,98.68
2018-07-28T02:59:02.013Z,98.49
2018-07-28T03:00:03.416Z,98.68
2018-07-28T03:01:04.811Z,98.68
2018-07-28T03:02:06.194Z,98.29
2018-07-28T03:03:07.590Z,98.49
2018-07-28T03:04:08.978Z,98.68
2018-07-28T03:05:10.374Z,98.58
2018-07-28T03:06:11.763Z,98.58
2018-07-28T03:07:13.156Z,99.16
2018-07-28T03:08:14.544Z,99.45
2018-07-28T03:09:15.936Z,99.26
2018-07-28T03:10:17.326Z,99.07
2018-07-28T03:11:18.718Z,98.77
2018-07-28T03:12:20.122Z,99.16
2018-07-28T03:13:21.516Z,99.16
2018-07-28T03:14:22.906Z,99.35
2018-07-28T03:15:24.301Z,98.49
2018-07-28T03:16:25.700Z,99.16
2018-07-28T03:17:27.092Z,99.26
2018-07-28T03:18:28.476Z,99.35
2018-07-28T03:19:29.882Z,98.97
2018-07-28T03:20:31.282Z,98.87
2018-07-28T03:21:32.681Z,99.21
2018-07-28T03:22:34.077Z,99.26
2018-07-28T03:23:35.459Z,98.87
2018-07-28T03:24:36.854Z,98.87
2018-07-28T03:25:38.236Z,98.87
2018-07-28T03:26:39.633Z,99.11
2018-07-28T03:27:41.015Z,98.97
2018-07-28T03:28:42.421Z,99.11
2018-07-28T03:29:43.816Z,99.07
2018-07-28T03:30:45.207Z,99.11
2018-07-28T03:31:46.604Z,99.16
2018-07-28T03:32:48.004Z,99.84
2018-07-28T03:33:49.405Z,99.69
2018-07-28T03:34:50.793Z,99.21
2018-07-28T03:35:52.187Z,99.30
2018-07-28T03:36:53.576Z,99.11
2018-07-28T03:37:55.830Z,99.02
2018-07-28T03:38:57.222Z,99.40
2018-07-28T03:39:58.610Z,99.16
2018-07-28T03:40:59.998Z,99.11
2018-07-28T03:42:01.389Z,99.07
2018-07-28T03:43:02.846Z,99.45
2018-07-28T03:44:04.236Z,99.35
2018-07-28T03:45:05.631Z,99.45
2018-07-28T03:46:07.018Z,99.16
2018-07-28T03:47:08.406Z,99.07
2018-07-28T03:48:09.794Z,99.30
2018-07-28T03:49:11.714Z,98.87
2018-07-28T03:50:13.087Z,99.16
2018-07-28T03:51:14.489Z,99.11
2018-07-28T03:52:15.878Z,99.16
2018-07-28T03:53:17.275Z,99.16
2018-07-28T03:54:18.680Z,98.68
2018-07-28T03:55:20.061Z,99.26
2018-07-28T03:56:21.459Z,99.26
2018-07-28T03:57:22.853Z,98.87
2018-07-28T03:58:24.235Z,98.58
2018-07-28T03:59:26.513Z,98.49
2018-07-28T04:00:27.901Z,98.68
2018-07-28T04:01:29.295Z,99.26
2018-07-28T04:02:30.684Z,98.77
2018-07-28T04:03:32.073Z,98.58
2018-07-28T04:04:33.479Z,98.49
2018-07-28T04:05:34.870Z,98.77
2018-07-28T04:06:36.279Z,98.20
2018-07-28T04:07:37.668Z,97.91
2018-07-28T04:08:39.055Z,98.10
2018-07-28T04:09:40.448Z,97.62
2018-07-28T04:10:41.838Z,97.72
2018-07-28T04:11:43.226Z,97.72
2018-07-28T04:12:44.626Z,97.67
2018-07-28T04:13:46.032Z,97.38
2018-07-28T04:14:47.423Z,97.67
2018-07-28T04:15:51.332Z,97.19
2018-07-28T04:16:52.718Z,96.80
2018-07-28T04:17:54.117Z,96.70
2018-07-28T04:18:55.506Z,96.51
2018-07-28T04:19:56.902Z,96.32
2018-07-28T04:20:58.309Z,96.51
2018-07-28T04:21:59.704Z,96.41
2018-07-28T04:23:01.102Z,95.64
2018-07-28T04:24:02.484Z,96.12
2018-07-28T04:25:03.897Z,95.84
2018-07-28T04:26:05.961Z,95.84
2018-07-28T04:27:07.368Z,95.36
2018-07-28T04:28:08.762Z,95.45
2018-07-28T04:29:10.165Z,95.01
2018-07-28T04:30:11.564Z,95.11
2018-07-28T04:31:12.953Z,95.11
2018-07-28T04:32:14.359Z,94.63
2018-07-28T04:33:15.762Z,94.73
2018-07-28T04:34:17.145Z,94.24
2018-07-28T04:35:18.533Z,94.43
2018-07-28T04:36:19.938Z,94.15
2018-07-28T04:37:21.321Z,94.24
2018-07-28T04:38:22.719Z,93.71
2018-07-28T04:39:24.113Z,93.71
2018-07-28T04:40:25.503Z,93.52
2018-07-28T04:41:26.920Z,93.42
2018-07-28T04:42:28.326Z,93.71
2018-07-28T04:43:29.718Z,92.84
2018-07-28T04:44:31.116Z,92.74
2018-07-28T04:45:32.508Z,93.04
2018-07-28T04:46:33.909Z,92.55
2018-07-28T04:47:35.305Z,92.55
2018-07-28T04:48:36.696Z,92.84
2018-07-28T04:49:38.082Z,92.55
2018-07-28T04:50:39.477Z,92.50
2018-07-28T04:51:40.870Z,91.63
2018-07-28T04:52:42.275Z,90.86
2018-07-28T04:53:43.669Z,90.09
2018-07-28T04:54:45.063Z,89.65
2018-07-28T04:55:46.470Z,89.07
2018-07-28T04:56:47.857Z,88.49
2018-07-28T04:57:49.257Z,88.68
2018-07-28T04:58:50.645Z,88.29
2018-07-28T04:59:52.033Z,87.71
2018-07-28T05:00:53.437Z,87.37
2018-07-28T05:01:54.823Z,87.18
2018-07-28T05:02:56.229Z,87.18
2018-07-28T05:03:57.633Z,87.18
2018-07-28T05:04:59.050Z,87.27
2018-07-28T05:06:00.453Z,86.89
2018-07-28T05:07:01.864Z,86.89
2018-07-28T05:08:03.262Z,87.08
2018-07-28T05:09:04.667Z,86.60
2018-07-28T05:10:06.081Z,86.79
2018-07-28T05:11:07.479Z,86.60
2018-07-28T05:12:09.466Z,85.93
2018-07-28T05:13:10.896Z,86.11
2018-07-28T05:14:12.292Z,85.77
2018-07-28T05:15:13.708Z,85.83
2018-07-28T05:16:15.104Z,85.58
2018-07-28T05:17:16.505Z,85.97
2018-07-28T05:18:17.896Z,85.77
2018-07-28T05:19:19.304Z,85.97
2018-07-28T05:20:20.700Z,85.73
2018-07-28T05:21:22.172Z,85.63
2018-07-28T05:22:23.571Z,85.29
2018-07-28T05:23:24.995Z,85.97
2018-07-28T05:24:26.397Z,85.19
2018-07-28T05:25:27.811Z,85.19
2018-07-28T05:26:29.235Z,84.90
2018-07-28T05:27:30.623Z,84.03
2018-07-28T05:28:32.020Z,84.32
2018-07-28T05:29:33.517Z,84.56
2018-07-28T05:30:34.889Z,83.94
2018-07-28T05:31:36.329Z,84.52
2018-07-28T05:32:37.697Z,84.32
2018-07-28T05:33:39.093Z,84.13
2018-07-28T05:34:40.504Z,84.32
2018-07-28T05:35:41.915Z,84.08
2018-07-28T05:36:43.316Z,83.98
2018-07-28T05:37:44.720Z,83.34
2018-07-28T05:38:46.134Z,83.34
2018-07-28T05:39:47.534Z,82.18
2018-07-28T05:40:48.935Z,82.04
2018-07-28T05:41:50.344Z,82.28
2018-07-28T05:42:51.748Z,82.47
2018-07-28T05:43:53.158Z,82.04
2018-07-28T05:44:54.570Z,82.28
2018-07-28T05:45:55.969Z,82.18
2018-07-28T05:46:57.366Z,80.28
2018-07-28T05:47:58.771Z,79.45
2018-07-28T05:49:00.185Z,78.38
2018-07-28T05:50:01.591Z,78.48
2018-07-28T05:51:02.984Z,79.32
2018-07-28T05:52:04.382Z,79.32
2018-07-28T05:53:05.780Z,79.32
2018-07-28T05:54:07.172Z,79.90
2018-07-28T05:55:08.578Z,79.70
2018-07-28T05:56:09.974Z,79.90
2018-07-28T05:57:11.369Z,80.09
2018-07-28T05:58:12.776Z,79.99
2018-07-28T05:59:14.182Z,78.77
2018-07-28T06:00:15.596Z,77.75
2018-07-28T06:01:16.993Z,77.26
2018-07-28T06:02:18.415Z,76.42
2018-07-28T06:03:19.803Z,76.81
2018-07-28T06:04:21.216Z,75.71
2018-07-28T06:05:22.609Z,75.81
2018-07-28T06:06:24.000Z,76.39
2018-07-28T06:07:25.403Z,76.97
2018-07-28T06:08:26.817Z,77.12
2018-07-28T06:09:28.209Z,77.22
2018-07-28T06:10:29.620Z,77.70
2018-07-28T06:11:31.021Z,78.29
2018-07-28T06:12:32.429Z,78.09
2018-07-28T06:13:33.844Z,77.70
2018-07-28T06:14:35.233Z,77.51
2018-07-28T06:15:36.631Z,76.74
2018-07-28T06:16:38.044Z,77.32
2018-07-28T06:17:39.433Z,77.22
2018-07-28T06:18:40.831Z,77.42
2018-07-28T06:19:42.228Z,77.55
2018-07-28T06:20:43.641Z,75.94
2018-07-28T06:21:45.039Z,74.77
2018-07-28T06:22:47.311Z,75.26
2018-07-28T06:23:48.713Z,73.90
2018-07-28T06:24:50.126Z,74.58
2018-07-28T06:25:51.541Z,74.87
2018-07-28T06:26:52.918Z,74.68
2018-07-28T06:27:54.377Z,74.58
2018-07-28T06:28:55.734Z,74.58
2018-07-28T06:29:57.155Z,74.19
2018-07-28T06:30:58.552Z,73.74
2018-07-28T06:31:59.976Z,73.65
2018-07-28T06:33:01.365Z,73.26
2018-07-28T06:34:02.769Z,72.87
2018-07-28T06:35:04.180Z,72.77
2018-07-28T06:36:05.592Z,72.77
2018-07-28T06:37:06.995Z,72.39
2018-07-28T06:38:08.405Z,72.23
2018-07-28T06:39:09.800Z,72.03
2018-07-28T06:40:11.213Z,70.87
2018-07-28T06:41:12.633Z,70.97
2018-07-28T06:42:14.029Z,70.71
2018-07-28T06:43:15.426Z,69.64
2018-07-28T06:44:17.621Z,69.25
2018-07-28T06:45:19.005Z,69.74
2018-07-28T06:46:20.417Z,69.87
2018-07-28T06:47:21.857Z,70.45
2018-07-28T06:48:23.181Z,69.48
2018-07-28T06:49:24.577Z,68.80
2018-07-28T06:50:25.975Z,68.22
2018-07-28T06:51:27.394Z,68.64
2018-07-28T06:52:28.793Z,67.73
2018-07-28T06:53:30.209Z,68.15
2018-07-28T06:54:31.614Z,67.86
2018-07-28T06:55:33.017Z,66.60
2018-07-28T06:56:34.417Z,67.47
2018-07-28T06:57:35.822Z,67.38
2018-07-28T06:58:37.242Z,67.67
2018-07-28T06:59:38.618Z,67.28
2018-07-28T07:00:40.018Z,67.08
2018-07-28T07:01:41.409Z,66.50
2018-07-28T07:02:42.814Z,67.28
2018-07-28T07:03:44.209Z,66.60
2018-07-28T07:04:45.658Z,66.79
2018-07-28T07:05:47.013Z,66.99
2018-07-28T07:06:48.427Z,66.69
2018-07-28T07:07:49.830Z,66.11
2018-07-28T07:08:51.227Z,66.11
2018-07-28T07:09:52.638Z,66.02
2018-07-28T07:10:54.053Z,66.37
2018-07-28T07:11:55.454Z,66.56
2018-07-28T07:12:56.865Z,66.66
2018-07-28T07:13:58.282Z,66.86
2018-07-28T07:14:59.671Z,66.76
2018-07-28T07:16:01.078Z,67.08
2018-07-28T07:17:02.481Z,66.69
2018-07-28T07:18:03.883Z,66.79
2018-07-28T07:19:05.295Z,66.21
2018-07-28T07:20:06.702Z,66.69
2018-07-28T07:21:08.102Z,66.50
2018-07-28T07:22:09.502Z,66.11
2018-07-28T07:23:10.908Z,65.92
2018-07-28T07:24:13.013Z,66.31
2018-07-28T07:25:14.407Z,66.24
2018-07-28T07:26:15.824Z,66.34
2018-07-28T07:27:17.218Z,66.34
2018-07-28T07:28:18.630Z,66.14
2018-07-28T07:29:20.037Z,66.27
2018-07-28T07:30:21.477Z,65.20
2018-07-28T07:31:22.840Z,65.01
2018-07-28T07:32:24.238Z,64.42
2018-07-28T07:33:25.628Z,63.84
2018-07-28T07:34:27.035Z,63.75
2018-07-28T07:35:28.427Z,63.48
2018-07-28T07:36:29.827Z,63.26
2018-07-28T07:37:31.227Z,63.29
2018-07-28T07:38:32.642Z,63.09
2018-07-28T07:39:34.053Z,62.60
2018-07-28T07:40:35.496Z,62.99
2018-07-28T07:41:36.849Z,62.35
2018-07-28T07:42:38.250Z,62.25
2018-07-28T07:43:39.649Z,61.96
2018-07-28T07:44:41.057Z,61.57
2018-07-28T07:45:42.461Z,60.82
2018-07-28T07:46:43.861Z,60.52
2018-07-28T07:47:45.266Z,59.84
2018-07-28T07:48:46.668Z,58.70
2018-07-28T07:49:48.061Z,59.09
2018-07-28T07:50:49.466Z,59.38
2018-07-28T07:51:50.861Z,58.60
2018-07-28T07:52:52.257Z,58.12
2018-07-28T07:53:53.690Z,58.70
2018-07-28T07:54:55.060Z,58.14
2018-07-28T07:55:56.468Z,58.73
2018-07-28T07:56:57.873Z,59.12
2018-07-28T07:57:59.270Z,57.46
2018-07-28T07:59:00.680Z,56.97
2018-07-28T08:00:02.075Z,57.17
2018-07-28T08:01:03.480Z,57.17
2018-07-28T08:02:04.886Z,57.36
2018-07-28T08:03:06.279Z,57.17
2018-07-28T08:04:07.684Z,56.58
2018-07-28T08:05:09.089Z,56.29
2018-07-28T08:06:10.499Z,56.48
2018-07-28T08:07:11.897Z,56.20
2018-07-28T08:08:13.312Z,56.68
2018-07-28T08:09:14.714Z,56.32
2018-07-28T08:10:16.121Z,56.02
2018-07-28T08:11:17.509Z,56.32
2018-07-28T08:12:18.924Z,55.83
2018-07-28T08:13:20.329Z,55.15
2018-07-28T08:14:21.723Z,55.15
2018-07-28T08:15:23.122Z,55.73
2018-07-28T08:16:24.528Z,55.32
2018-07-28T08:17:25.920Z,55.51
2018-07-28T08:18:27.332Z,55.22
2018-07-28T08:19:28.743Z,55.32
2018-07-28T08:20:30.242Z,54.63
2018-07-28T08:21:31.632Z,55.12
2018-07-28T08:22:33.035Z,55.32
2018-07-28T08:23:34.463Z,54.53
2018-07-28T08:24:35.849Z,54.34
2018-07-28T08:25:37.234Z,54.73
2018-07-28T08:26:38.660Z,54.53
2018-07-28T08:27:40.062Z,54.34
2018-07-28T08:28:41.462Z,54.73
2018-07-28T08:29:42.870Z,54.93
2018-07-28T08:30:44.277Z,54.24
2018-07-28T08:31:45.677Z,54.63
2018-07-28T08:32:47.090Z,53.95
2018-07-28T08:33:48.519Z,53.46
2018-07-28T08:34:50.072Z,53.75
2018-07-28T08:35:51.467Z,53.39
2018-07-28T08:36:52.883Z,53.19
2018-07-28T08:37:54.344Z,53.85
2018-07-28T08:38:55.693Z,53.29
2018-07-28T08:39:57.122Z,52.61
2018-07-28T08:40:58.516Z,52.70
2018-07-28T08:41:59.927Z,52.41
2018-07-28T08:43:01.325Z,51.53
2018-07-28T08:44:02.754Z,52.02
2018-07-28T08:45:04.166Z,52.12
2018-07-28T08:46:05.569Z,51.92
2018-07-28T08:47:06.986Z,52.12
2018-07-28T08:48:08.438Z,52.61
2018-07-28T08:49:09.902Z,51.63
2018-07-28T08:50:11.240Z,51.92
2018-07-28T08:51:12.650Z,51.53
2018-07-28T08:52:15.033Z,50.49
2018-07-28T08:53:16.471Z,50.95
2018-07-28T08:54:17.882Z,50.75
2018-07-28T08:55:19.293Z,50.85
2018-07-28T08:56:20.704Z,50.85
2018-07-28T08:57:22.114Z,51.86
2018-07-28T08:58:23.509Z,51.66
2018-07-28T08:59:24.909Z,51.43
2018-07-28T09:00:26.339Z,51.24
2018-07-28T09:01:27.755Z,50.95
2018-07-28T09:02:29.153Z,50.75
2018-07-28T09:03:30.551Z,51.14
2018-07-28T09:04:31.986Z,51.04
2018-07-28T09:05:33.393Z,50.98
2018-07-28T09:06:34.781Z,51.04
2018-07-28T09:07:36.183Z,51.07
2018-07-28T09:08:37.610Z,50.59
2018-07-28T09:09:39.044Z,50.29
2018-07-28T09:10:40.545Z,49.90
2018-07-28T09:11:41.876Z,50.20
2018-07-28T09:12:43.300Z,50.42
2018-07-28T09:13:44.696Z,49.61
2018-07-28T09:14:46.107Z,50.20
2018-07-28T09:15:47.508Z,50.98
2018-07-28T09:16:48.910Z,50.32
2018-07-28T09:17:50.317Z,50.02
2018-07-28T09:18:51.709Z,48.94
2018-07-28T09:19:53.114Z,49.14
2018-07-28T09:20:54.521Z,49.43
2018-07-28T09:21:55.949Z,48.75
2018-07-28T09:22:58.215Z,49.04
2018-07-28T09:23:59.632Z,48.97
2018-07-28T09:25:01.051Z,48.48
2018-07-28T09:26:02.435Z,48.09
2018-07-28T09:27:03.865Z,47.72
2018-07-28T09:28:05.269Z,47.63
2018-07-28T09:29:06.698Z,47.04
2018-07-28T09:30:08.101Z,48.11
2018-07-28T09:31:09.503Z,47.70
2018-07-28T09:32:10.907Z,47.31
2018-07-28T09:33:12.313Z,47.80
2018-07-28T09:34:13.732Z,47.31
2018-07-28T09:35:15.133Z,46.99
2018-07-28T09:36:16.553Z,47.19
2018-07-28T09:37:17.939Z,47.77
2018-07-28T09:38:19.349Z,47.87
2018-07-28T09:39:20.762Z,48.09
2018-07-28T09:40:22.160Z,47.48
2018-07-28T09:41:23.590Z,47.09
2018-07-28T09:42:25.006Z,47.50
2018-07-28T09:43:26.403Z,46.82
2018-07-28T09:44:27.825Z,46.75
2018-07-28T09:45:29.230Z,46.36
2018-07-28T09:46:31.251Z,45.57
2018-07-28T09:47:32.668Z,45.86
2018-07-28T09:48:34.075Z,45.76
2018-07-28T09:49:35.502Z,45.76
2018-07-28T09:50:36.912Z,46.04
2018-07-28T09:51:38.314Z,46.72
2018-07-28T09:52:39.716Z,46.72
2018-07-28T09:53:41.118Z,46.26
2018-07-28T09:54:42.534Z,46.36
2018-07-28T09:55:43.941Z,47.04
2018-07-28T09:56:45.353Z,45.67
2018-07-28T09:57:46.767Z,46.06
2018-07-28T09:58:48.180Z,45.97
2018-07-28T09:59:49.597Z,45.57
2018-07-28T10:00:50.998Z,45.37
2018-07-28T10:01:52.401Z,45.08
2018-07-28T10:02:53.801Z,45.67
2018-07-28T10:03:55.218Z,45.08
2018-07-28T10:04:56.632Z,45.57
2018-07-28T10:05:58.040Z,45.57
2018-07-28T10:06:59.436Z,45.47
2018-07-28T10:08:00.842Z,45.97
2018-07-28T10:09:02.251Z,45.86
2018-07-28T10:10:03.664Z,45.28
2018-07-28T10:11:05.972Z,45.57
2018-07-28T10:12:07.366Z,44.98
2018-07-28T10:13:08.784Z,43.71
2018-07-28T10:14:10.162Z,44.49
2018-07-28T10:15:11.568Z,44.03
2018-07-28T10:16:13.041Z,44.20
2018-07-28T10:17:14.382Z,44.49
2018-07-28T10:18:15.794Z,44.98
2018-07-28T10:19:17.200Z,45.01
2018-07-28T10:20:18.607Z,45.01
2018-07-28T10:21:20.926Z,44.71
2018-07-28T10:22:22.337Z,44.03
2018-07-28T10:23:23.737Z,43.54
2018-07-28T10:24:25.143Z,43.63
2018-07-28T10:25:26.545Z,44.62
2018-07-28T10:26:27.946Z,44.71
2018-07-28T10:27:29.361Z,43.05
2018-07-28T10:28:30.780Z,43.13
2018-07-28T10:29:32.191Z,43.54
2018-07-28T10:30:33.590Z,42.74
2018-07-28T10:31:34.987Z,42.66
2018-07-28T10:32:36.395Z,42.85
2018-07-28T10:33:37.795Z,43.15
2018-07-28T10:34:39.219Z,42.85
2018-07-28T10:35:40.611Z,42.76
2018-07-28T10:36:42.051Z,42.85
2018-07-28T10:37:44.143Z,41.68
2018-07-28T10:38:45.537Z,41.49
2018-07-28T10:39:46.925Z,40.90
2018-07-28T10:40:48.337Z,41.00
2018-07-28T10:41:49.748Z,42.05
2018-07-28T10:42:51.158Z,42.15
2018-07-28T10:43:52.560Z,42.05
2018-07-28T10:44:53.956Z,42.07
2018-07-28T10:45:55.370Z,41.86
2018-07-28T10:46:56.783Z,42.25
2018-07-28T10:47:58.180Z,42.54
2018-07-28T10:48:59.584Z,42.44
2018-07-28T10:50:00.993Z,42.07
2018-07-28T10:51:02.393Z,41.58
2018-07-28T10:52:03.827Z,40.11
2018-07-28T10:53:05.226Z,41.19
2018-07-28T10:54:06.632Z,40.70
2018-07-28T10:55:08.039Z,41.29
2018-07-28T10:56:09.441Z,41.31
2018-07-28T10:57:10.851Z,41.31
2018-07-28T10:58:12.257Z,41.02
2018-07-28T10:59:13.673Z,41.11
2018-07-28T11:00:15.054Z,41.02
2018-07-28T11:01:16.455Z,40.64
2018-07-28T11:02:17.869Z,39.96
2018-07-28T11:03:19.281Z,39.96
2018-07-28T11:04:20.694Z,40.55
2018-07-28T11:05:22.109Z,39.47
2018-07-28T11:06:23.469Z,39.07
2018-07-28T11:07:24.882Z,38.39
2018-07-28T11:08:26.289Z,39.17
2018-07-28T11:09:27.690Z,39.35
2018-07-28T11:10:29.104Z,39.47
2018-07-28T11:11:30.516Z,39.74
2018-07-28T11:12:31.916Z,39.94
2018-07-28T11:13:33.328Z,39.96
2018-07-28T11:14:35.637Z,40.06
2018-07-28T11:15:37.056Z,40.16
2018-07-28T11:16:38.460Z,40.06
2018-07-28T11:17:39.865Z,38.88
2018-07-28T11:18:41.313Z,38.90
2018-07-28T11:19:42.624Z,38.02
2018-07-28T11:20:44.046Z,38.13
2018-07-28T11:21:45.406Z,37.38
2018-07-28T11:22:47.389Z,36.54
2018-07-28T11:23:48.801Z,34.92
2018-07-28T11:24:50.220Z,33.77
2018-07-28T11:25:51.630Z,32.64
2018-07-28T11:26:52.961Z,31.07
2018-07-28T11:27:54.310Z,30.51
2018-07-28T11:28:55.681Z,29.44
2018-07-28T11:29:57.129Z,28.47
2018-07-28T11:30:58.491Z,28.00
2018-07-28T11:31:59.918Z,27.09
2018-07-28T11:33:01.228Z,27.19
2018-07-28T11:34:02.584Z,27.00
2018-07-28T11:35:04.008Z,26.10
2018-07-28T11:36:05.358Z,26.02
2018-07-28T11:37:06.804Z,26.13
2018-07-28T11:38:08.175Z,26.03
2018-07-28T11:39:09.568Z,26.64
2018-07-28T11:40:10.979Z,26.17
2018-07-28T11:41:12.354Z,26.08
2018-07-28T11:42:13.716Z,25.76
2018-07-28T11:43:15.087Z,26.02
2018-07-28T11:44:16.459Z,25.99
2018-07-28T11:45:17.825Z,27.15
2018-07-28T11:46:19.925Z,28.53
2018-07-28T11:47:21.337Z,28.23
2018-07-28T11:48:22.753Z,29.19
2018-07-28T11:49:24.144Z,30.93
2018-07-28T11:50:25.553Z,31.69
2018-07-28T11:51:27.007Z,32.86
2018-07-28T11:52:28.365Z,33.62
2018-07-28T11:53:29.785Z,34.08
2018-07-28T11:54:31.191Z,34.85
2018-07-28T11:55:32.605Z,36.01
2018-07-28T11:56:33.998Z,36.98
2018-07-28T11:57:35.421Z,37.45
2018-07-28T11:58:36.831Z,37.74
2018-07-28T11:59:38.183Z,37.82
2018-07-28T12:00:39.609Z,38.31
2018-07-28T12:01:41.513Z,38.60
2018-07-28T12:02:43.712Z,38.21
2018-07-28T12:03:45.995Z,38.23
2018-07-28T12:04:47.416Z,38.13
2018-07-28T12:05:48.824Z,37.94
2018-07-28T12:06:50.246Z,38.13
2018-07-28T12:07:51.645Z,37.84
2018-07-28T12:08:53.640Z,37.96
2018-07-28T12:09:55.605Z,37.86
2018-07-28T12:10:57.034Z,36.90
2018-07-28T12:11:58.440Z,36.51
2018-07-28T12:12:59.853Z,36.29
2018-07-28T12:14:01.255Z,36.49
2018-07-28T12:15:03.258Z,36.19
2018-07-28T12:16:04.663Z,35.70
2018-07-28T12:17:06.844Z,35.88
2018-07-28T12:18:08.329Z,36.76
2018-07-28T12:19:09.629Z,35.99
2018-07-28T12:20:11.031Z,35.89
2018-07-28T12:21:12.423Z,35.80
2018-07-28T12:22:14.421Z,36.49
2018-07-28T12:23:15.823Z,36.09
2018-07-28T12:24:17.247Z,36.29
2018-07-28T12:25:18.680Z,36.29
2018-07-28T12:26:20.091Z,36.09
2018-07-28T12:27:21.511Z,36.29
2018-07-28T12:28:22.909Z,36.18
2018-07-28T12:29:24.318Z,36.78
2018-07-28T12:30:25.720Z,36.68
2018-07-28T12:31:27.121Z,36.19
2018-07-28T12:32:28.555Z,36.47
2018-07-28T12:33:29.948Z,36.86
2018-07-28T12:34:31.350Z,36.96
2018-07-28T12:35:32.766Z,36.29
2018-07-28T12:36:34.170Z,36.19
2018-07-28T12:37:36.532Z,35.89
2018-07-28T12:38:37.914Z,35.89
2018-07-28T12:39:39.344Z,35.21
2018-07-28T12:40:41.430Z,34.51
2018-07-28T12:41:42.878Z,35.10
2018-07-28T12:42:44.252Z,36.29
2018-07-28T12:43:46.565Z,35.21
2018-07-28T12:44:47.972Z,35.11
2018-07-28T12:45:49.370Z,35.80
2018-07-28T12:46:50.785Z,34.80
2018-07-28T12:47:52.208Z,35.57
2018-07-28T12:48:53.603Z,36.16
2018-07-28T12:49:55.013Z,36.55
2018-07-28T12:50:56.413Z,36.37
2018-07-28T12:51:57.821Z,35.27
2018-07-28T12:52:59.223Z,36.16
2018-07-28T12:54:01.234Z,37.61
2018-07-28T12:55:02.657Z,38.10
2018-07-28T12:56:04.066Z,38.57
2018-07-28T12:57:05.474Z,38.86
2018-07-28T12:58:07.778Z,39.15
2018-07-28T12:59:09.196Z,38.29
2018-07-28T13:00:10.599Z,38.00
2018-07-28T13:01:12.031Z,38.37
2018-07-28T13:02:13.447Z,37.88
2018-07-28T13:03:14.879Z,37.88
2018-07-28T13:04:16.304Z,37.96
2018-07-28T13:05:17.703Z,38.75
2018-07-28T13:06:19.143Z,39.14
2018-07-28T13:07:20.560Z,39.72
2018-07-28T13:08:21.974Z,40.01
2018-07-28T13:09:23.397Z,40.78
2018-07-28T13:10:24.808Z,40.70
2018-07-28T13:11:26.211Z,40.50